createdAt,value
2018-07-23T00:00:10.757Z,0
2018-07-23T00:01:10.756Z,0
2018-07-23T00:02:10.816Z,0
2018-07-23T00:03:10.901Z,0
2018-07-23T00:04:10.864Z,0
2018-07-23T00:05:10.859Z,0
2018-07-23T00:06:10.791Z,0
2018-07-23T00:07:10.778Z,0
2018-07-23T00:08:10.773Z,0
2018-07-23T00:09:10.774Z,0
2018-07-23T00:10:10.778Z,0
2018-07-23T00:11:10.776Z,0
2018-07-23T00:12:10.779Z,0
2018-07-23T00:13:10.731Z,0
2018-07-23T00:14:10.847Z,0
2018-07-23T00:15:10.814Z,0
2018-07-23T00:16:10.905Z,0
2018-07-23T00:17:10.772Z,0
2018-07-23T00:18:10.855Z,0
2018-07-23T00:19:10.883Z,0
2018-07-23T00:20:10.767Z,0
2018-07-23T00:21:10.848Z,0
2018-07-23T00:22:10.855Z,0
2018-07-23T00:23:10.767Z,0
2018-07-23T00:24:10.888Z,0
2018-07-23T00:25:10.780Z,0
2018-07-23T00:26:10.746Z,0
2018-07-23T00:27:10.829Z,0
2018-07-23T00:28:10.860Z,0
2018-07-23T00:29:10.858Z,0
2018-07-23T00:30:10.861Z,0
2018-07-23T00:31:10.790Z,0
2018-07-23T00:32:10.859Z,0
2018-07-23T00:33:10.865Z,0
2018-07-23T00:34:10.793Z,0
2018-07-23T00:35:10.832Z,0
2018-07-23T00:36:10.791Z,0
2018-07-23T00:37:10.868Z,0
2018-07-23T00:38:10.903Z,0
2018-07-23T00:39:10.860Z,0
2018-07-23T00:40:10.838Z,0
2018-07-23T00:41:10.803Z,0
2018-07-23T00:42:10.796Z,0
2018-07-23T00:43:10.883Z,0
2018-07-23T00:44:10.877Z,0
2018-07-23T00:45:10.864Z,0
2018-07-23T00:46:10.790Z,0
2018-07-23T00:47:10.798Z,0
2018-07-23T00:48:10.869Z,0
2018-07-23T00:49:10.815Z,0
2018-07-23T00:50:10.801Z,0
2018-07-23T00:51:10.873Z,0
2018-07-23T00:52:10.802Z,0
2018-07-23T00:53:10.804Z,0
2018-07-23T00:54:10.816Z,0
2018-07-23T00:55:10.908Z,0
2018-07-23T00:56:10.875Z,0
2018-07-23T00:57:10.875Z,0
2018-07-23T00:58:10.847Z,0
2018-07-23T00:59:10.914Z,0
2018-07-23T01:00:10.887Z,0
2018-07-23T01:01:10.836Z,0
2018-07-23T01:02:10.899Z,0
2018-07-23T01:03:10.906Z,0
2018-07-23T01:04:10.904Z,0
2018-07-23T01:05:10.936Z,0
2018-07-23T01:06:10.857Z,0
2018-07-23T01:07:10.819Z,0
2018-07-23T01:08:10.945Z,0
2018-07-23T01:09:10.788Z,0
2018-07-23T01:10:10.882Z,0
2018-07-23T01:11:10.887Z,0
2018-07-23T01:12:10.866Z,0
2018-07-23T01:13:10.808Z,0
2018-07-23T01:14:10.911Z,0
2018-07-23T01:15:10.856Z,0
2018-07-23T01:16:10.896Z,0
2018-07-23T01:17:10.872Z,0
2018-07-23T01:18:10.871Z,0
2018-07-23T01:19:10.765Z,0
2018-07-23T01:20:10.914Z,0
2018-07-23T01:21:10.875Z,0
2018-07-23T01:22:10.825Z,0
2018-07-23T01:23:10.810Z,0
2018-07-23T01:24:10.884Z,0
2018-07-23T01:25:10.833Z,0
2018-07-23T01:26:10.888Z,0
2018-07-23T01:27:10.818Z,0
2018-07-23T01:28:10.958Z,0
2018-07-23T01:29:10.865Z,0
2018-07-23T01:30:10.875Z,0
2018-07-23T01:31:10.877Z,0
2018-07-23T01:32:10.870Z,0
2018-07-23T01:33:10.836Z,0
2018-07-23T01:34:10.908Z,0
2018-07-23T01:35:10.936Z,0
2018-07-23T01:36:10.937Z,0
2018-07-23T01:37:10.902Z,0
2018-07-23T01:38:10.826Z,0
2018-07-23T01:39:10.898Z,0
2018-07-23T01:40:10.832Z,0
2018-07-23T01:41:10.895Z,0
2018-07-23T01:42:10.896Z,0
2018-07-23T01:43:10.963Z,0
2018-07-23T01:44:10.902Z,0
2018-07-23T01:45:10.861Z,0
2018-07-23T01:46:10.901Z,0
2018-07-23T01:47:10.836Z,0
2018-07-23T01:48:10.831Z,0
2018-07-23T01:49:10.903Z,0
2018-07-23T01:50:10.863Z,0
2018-07-23T01:51:10.906Z,0
2018-07-23T01:52:10.872Z,0
2018-07-23T01:53:10.840Z,0
2018-07-23T01:54:10.911Z,0
2018-07-23T01:55:10.843Z,0
2018-07-23T01:56:10.844Z,0
2018-07-23T01:57:10.876Z,0
2018-07-23T01:58:10.914Z,0
2018-07-23T01:59:10.917Z,0
2018-07-23T02:00:10.915Z,0
2018-07-23T02:01:10.858Z,0
2018-07-23T02:02:10.834Z,0
2018-07-23T02:03:10.880Z,0
2018-07-23T02:04:10.980Z,0
2018-07-23T02:05:10.846Z,0
2018-07-23T02:06:10.861Z,0
2018-07-23T02:07:10.923Z,0
2018-07-23T02:08:10.887Z,0
2018-07-23T02:09:10.929Z,0
2018-07-23T02:10:10.959Z,0
2018-07-23T02:11:10.949Z,0
2018-07-23T02:12:10.903Z,0
2018-07-23T02:13:10.928Z,0
2018-07-23T02:14:10.934Z,0
2018-07-23T02:15:10.888Z,0
2018-07-23T02:16:10.930Z,0
2018-07-23T02:17:10.907Z,0
2018-07-23T02:18:10.951Z,0
2018-07-23T02:19:10.828Z,0
2018-07-23T02:20:10.871Z,0
2018-07-23T02:21:10.916Z,0
2018-07-23T02:22:10.924Z,0
2018-07-23T02:23:10.829Z,0
2018-07-23T02:24:10.890Z,0
2018-07-23T02:25:10.923Z,0
2018-07-23T02:26:10.919Z,0
2018-07-23T02:27:10.923Z,0
2018-07-23T02:28:10.965Z,0
2018-07-23T02:29:10.874Z,0
2018-07-23T02:30:10.876Z,0
2018-07-23T02:31:10.814Z,0
2018-07-23T02:32:10.926Z,0
2018-07-23T02:33:10.929Z,0
2018-07-23T02:34:10.841Z,0
2018-07-23T02:35:10.902Z,0
2018-07-23T02:36:10.881Z,0
2018-07-23T02:37:10.938Z,0
2018-07-23T02:38:10.873Z,0
2018-07-23T02:39:10.955Z,0
2018-07-23T02:40:10.866Z,0
2018-07-23T02:41:10.937Z,0
2018-07-23T02:42:10.867Z,0
2018-07-23T02:43:10.878Z,0
2018-07-23T02:44:10.943Z,0
2018-07-23T02:45:10.871Z,0
2018-07-23T02:46:10.945Z,0
2018-07-23T02:47:10.873Z,0
2018-07-23T02:48:10.952Z,0
2018-07-23T02:49:10.877Z,0
2018-07-23T02:50:10.919Z,0
2018-07-23T02:51:10.960Z,0
2018-07-23T02:52:10.858Z,0
2018-07-23T02:53:10.916Z,0
2018-07-23T02:54:10.923Z,0
2018-07-23T02:55:10.984Z,0
2018-07-23T02:56:10.890Z,0
2018-07-23T02:57:10.970Z,0
2018-07-23T02:58:10.889Z,0
2018-07-23T02:59:10.901Z,0
2018-07-23T03:00:10.921Z,0
2018-07-23T03:01:10.892Z,0
2018-07-23T03:02:10.963Z,0
2018-07-23T03:03:10.965Z,0
2018-07-23T03:04:10.965Z,0
2018-07-23T03:05:10.963Z,0
2018-07-23T03:06:10.896Z,0
2018-07-23T03:07:10.896Z,0
2018-07-23T03:08:10.969Z,0
2018-07-23T03:09:11.025Z,0
2018-07-23T03:10:10.897Z,0
2018-07-23T03:11:10.905Z,0
2018-07-23T03:12:10.865Z,0
2018-07-23T03:13:10.900Z,0
2018-07-23T03:14:10.929Z,0
2018-07-23T03:15:10.902Z,0
2018-07-23T03:16:10.904Z,0
2018-07-23T03:17:10.981Z,0
2018-07-23T03:18:10.974Z,0
2018-07-23T03:19:10.918Z,0
2018-07-23T03:20:10.975Z,0
2018-07-23T03:21:10.983Z,0
2018-07-23T03:22:10.903Z,0
2018-07-23T03:23:10.986Z,0
2018-07-23T03:24:10.984Z,0
2018-07-23T03:25:10.979Z,0
2018-07-23T03:26:10.984Z,0
2018-07-23T03:27:10.939Z,0
2018-07-23T03:28:10.968Z,0
2018-07-23T03:29:10.958Z,0
2018-07-23T03:30:11.015Z,0
2018-07-23T03:31:10.914Z,0
2018-07-23T03:32:10.905Z,0
2018-07-23T03:33:10.904Z,0
2018-07-23T03:34:11.071Z,0
2018-07-23T03:35:11.046Z,0
2018-07-23T03:36:11.023Z,0
2018-07-23T03:37:10.990Z,0
2018-07-23T03:38:11.010Z,0
2018-07-23T03:39:11.005Z,0
2018-07-23T03:40:11.052Z,0
2018-07-23T03:41:10.960Z,0
2018-07-23T03:42:11.013Z,0
2018-07-23T03:43:11.037Z,0
2018-07-23T03:44:10.948Z,0
2018-07-23T03:45:10.928Z,0
2018-07-23T03:46:10.988Z,0
2018-07-23T03:47:10.967Z,0
2018-07-23T03:48:11.015Z,0
2018-07-23T03:49:10.952Z,0
2018-07-23T03:50:10.963Z,0
2018-07-23T03:51:10.919Z,0
2018-07-23T03:52:10.972Z,0
2018-07-23T03:53:11.032Z,0
2018-07-23T03:54:11.001Z,0
2018-07-23T03:55:10.975Z,0
2018-07-23T03:56:10.996Z,0
2018-07-23T03:57:11.022Z,0
2018-07-23T03:58:11.003Z,0
2018-07-23T03:59:10.932Z,0
2018-07-23T04:00:11.006Z,0
2018-07-23T04:01:11.094Z,0
2018-07-23T04:02:10.933Z,0
2018-07-23T04:03:11.002Z,0
2018-07-23T04:04:10.934Z,0
2018-07-23T04:05:11.004Z,0
2018-07-23T04:06:10.937Z,0
2018-07-23T04:07:11.008Z,0
2018-07-23T04:08:11.008Z,0
2018-07-23T04:09:10.921Z,0
2018-07-23T04:10:10.991Z,0
2018-07-23T04:11:11.010Z,0
2018-07-23T04:12:11.036Z,0
2018-07-23T04:13:10.968Z,0
2018-07-23T04:14:10.966Z,0
2018-07-23T04:15:11.036Z,0
2018-07-23T04:16:11.013Z,0
2018-07-23T04:17:10.927Z,0
2018-07-23T04:18:10.977Z,0
2018-07-23T04:19:10.931Z,0
2018-07-23T04:20:11.012Z,0
2018-07-23T04:21:10.933Z,0
2018-07-23T04:22:11.006Z,0
2018-07-23T04:23:11.009Z,0
2018-07-23T04:24:10.975Z,0
2018-07-23T04:25:10.895Z,0
2018-07-23T04:26:11.008Z,0
2018-07-23T04:27:11.012Z,0
2018-07-23T04:28:10.982Z,0
2018-07-23T04:29:11.015Z,0
2018-07-23T04:30:11.009Z,0
2018-07-23T04:31:10.931Z,16
2018-07-23T04:32:10.936Z,15
2018-07-23T04:33:10.937Z,17
2018-07-23T04:34:11.012Z,18
2018-07-23T04:35:10.941Z,17
2018-07-23T04:36:10.941Z,17
2018-07-23T04:37:10.929Z,18
2018-07-23T04:38:10.961Z,17
2018-07-23T04:39:11.012Z,18
2018-07-23T04:40:10.966Z,20
2018-07-23T04:41:10.930Z,20
2018-07-23T04:42:11.024Z,20
2018-07-23T04:43:10.943Z,21
2018-07-23T04:44:10.953Z,22
2018-07-23T04:45:10.901Z,24
2018-07-23T04:46:11.018Z,23
2018-07-23T04:47:11.030Z,24
2018-07-23T04:48:10.961Z,26
2018-07-23T04:49:11.038Z,26
2018-07-23T04:50:10.969Z,28
2018-07-23T04:51:10.968Z,30
2018-07-23T04:52:11.037Z,33
2018-07-23T04:53:11.045Z,36
2018-07-23T04:54:10.966Z,35
2018-07-23T04:55:11.039Z,34
2018-07-23T04:56:11.050Z,39
2018-07-23T04:57:11.000Z,36
2018-07-23T04:58:11.020Z,35
2018-07-23T04:59:11.012Z,37
2018-07-23T05:00:11.078Z,43
2018-07-23T05:01:11.071Z,45
2018-07-23T05:02:11.044Z,44
2018-07-23T05:03:11.018Z,43
2018-07-23T05:04:11.080Z,44
2018-07-23T05:05:11.043Z,48
2018-07-23T05:06:10.940Z,53
2018-07-23T05:07:10.989Z,55
2018-07-23T05:08:10.949Z,59
2018-07-23T05:09:11.003Z,60
2018-07-23T05:10:11.042Z,64
2018-07-23T05:11:10.953Z,65
2018-07-23T05:12:11.041Z,62
2018-07-23T05:13:10.969Z,60
2018-07-23T05:14:10.952Z,48
2018-07-23T05:15:10.996Z,64
2018-07-23T05:16:10.974Z,62
2018-07-23T05:17:11.004Z,61
2018-07-23T05:18:10.975Z,63
2018-07-23T05:19:10.958Z,62
2018-07-23T05:20:11.045Z,68
2018-07-23T05:21:10.990Z,62
2018-07-23T05:22:10.923Z,62
2018-07-23T05:23:11.046Z,65
2018-07-23T05:24:10.996Z,68
2018-07-23T05:25:10.964Z,74
2018-07-23T05:26:10.970Z,81
2018-07-23T05:27:10.988Z,83
2018-07-23T05:28:11.057Z,85
2018-07-23T05:29:10.994Z,96
2018-07-23T05:30:10.995Z,104
2018-07-23T05:31:11.065Z,105
2018-07-23T05:32:10.952Z,105
2018-07-23T05:33:11.064Z,110
2018-07-23T05:34:11.061Z,111
2018-07-23T05:36:11.066Z,100
2018-07-23T05:37:10.970Z,106
2018-07-23T05:38:11.019Z,119
2018-07-23T05:39:11.048Z,118
2018-07-23T05:40:11.070Z,111
2018-07-23T05:41:11.108Z,114
2018-07-23T05:42:11.043Z,122
2018-07-23T05:43:11.087Z,135
2018-07-23T05:44:11.049Z,135
2018-07-23T05:45:11.146Z,131
2018-07-23T05:46:11.111Z,133
2018-07-23T05:47:10.999Z,135
2018-07-23T05:48:10.944Z,136
2018-07-23T05:49:11.004Z,141
2018-07-23T05:50:11.057Z,146
2018-07-23T05:51:10.971Z,146
2018-07-23T05:52:11.014Z,146
2018-07-23T05:53:10.971Z,146
2018-07-23T05:54:10.965Z,146
2018-07-23T05:55:11.032Z,158
2018-07-23T05:56:11.064Z,179
2018-07-23T05:57:11.013Z,194
2018-07-23T05:58:11.104Z,194
2018-07-23T05:59:11.093Z,188
2018-07-23T06:00:11.111Z,167
2018-07-23T06:01:11.135Z,159
2018-07-23T06:02:11.056Z,153
2018-07-23T06:03:11.102Z,150
2018-07-23T06:04:11.046Z,167
2018-07-23T06:05:11.106Z,193
2018-07-23T06:06:11.119Z,183
2018-07-23T06:07:11.119Z,175
2018-07-23T06:08:11.043Z,165
2018-07-23T06:09:11.051Z,167
2018-07-23T06:10:11.110Z,167
2018-07-23T06:11:11.010Z,198
2018-07-23T06:12:11.132Z,230
2018-07-23T06:13:11.114Z,210
2018-07-23T06:14:11.112Z,208
2018-07-23T06:15:11.125Z,208
2018-07-23T06:16:11.123Z,211
2018-07-23T06:17:11.057Z,203
2018-07-23T06:18:11.093Z,227
2018-07-23T06:19:11.112Z,221
2018-07-23T06:20:11.092Z,202
2018-07-23T06:21:11.023Z,215
2018-07-23T06:22:11.095Z,239
2018-07-23T06:23:11.097Z,230
2018-07-23T06:24:11.101Z,243
2018-07-23T06:25:11.032Z,249
2018-07-23T06:26:11.031Z,264
2018-07-23T06:27:11.077Z,275
2018-07-23T06:28:11.064Z,313
2018-07-23T06:29:11.001Z,340
2018-07-23T06:30:11.156Z,321
2018-07-23T06:31:11.126Z,259
2018-07-23T06:32:11.006Z,244
2018-07-23T06:33:11.122Z,301
2018-07-23T06:34:11.102Z,285
2018-07-23T06:35:11.020Z,260
2018-07-23T06:36:11.008Z,296
2018-07-23T06:37:11.083Z,258
2018-07-23T06:38:11.003Z,240
2018-07-23T06:39:10.976Z,298
2018-07-23T06:40:11.037Z,341
2018-07-23T06:41:11.088Z,365
2018-07-23T06:42:11.039Z,349
2018-07-23T06:43:11.127Z,338
2018-07-23T06:44:11.001Z,323
2018-07-23T06:45:11.012Z,364
2018-07-23T06:46:11.000Z,368
2018-07-23T06:47:11.071Z,353
2018-07-23T06:48:11.037Z,382
2018-07-23T06:49:11.133Z,401
2018-07-23T06:50:11.114Z,321
2018-07-23T06:51:11.073Z,274
2018-07-23T06:52:11.176Z,299
2018-07-23T06:53:11.139Z,316
2018-07-23T06:54:11.149Z,304
2018-07-23T06:55:11.153Z,291
2018-07-23T06:56:11.052Z,303
2018-07-23T06:57:11.096Z,364
2018-07-23T06:58:11.043Z,372
2018-07-23T06:59:11.122Z,306
2018-07-23T07:00:11.092Z,294
2018-07-23T07:01:11.044Z,291
2018-07-23T07:02:11.105Z,278
2018-07-23T07:03:11.133Z,278
2018-07-23T07:04:11.094Z,261
2018-07-23T07:05:11.147Z,312
2018-07-23T07:06:11.098Z,488
2018-07-23T07:07:11.063Z,333
2018-07-23T07:08:11.121Z,376
2018-07-23T07:09:11.089Z,558
2018-07-23T07:10:11.082Z,556
2018-07-23T07:11:11.092Z,555
2018-07-23T07:12:11.120Z,527
2018-07-23T07:13:11.036Z,464
2018-07-23T07:14:11.122Z,500
2018-07-23T07:15:11.123Z,220
2018-07-23T07:16:11.054Z,518
2018-07-23T07:17:11.065Z,501
2018-07-23T07:18:11.040Z,542
2018-07-23T07:19:11.166Z,522
2018-07-23T07:20:11.139Z,532
2018-07-23T07:21:11.055Z,537
2018-07-23T07:22:11.096Z,557
2018-07-23T07:23:11.066Z,556
2018-07-23T07:24:11.136Z,553
2018-07-23T07:25:11.177Z,523
2018-07-23T07:26:11.155Z,542
2018-07-23T07:27:11.164Z,540
2018-07-23T07:28:11.173Z,541
2018-07-23T07:29:11.108Z,596
2018-07-23T07:30:11.175Z,625
2018-07-23T07:31:11.078Z,613
2018-07-23T07:32:11.170Z,623
2018-07-23T07:33:11.063Z,616
2018-07-23T07:34:11.176Z,612
2018-07-23T07:35:11.069Z,628
2018-07-23T07:36:11.109Z,642
2018-07-23T07:37:11.047Z,639
2018-07-23T07:38:11.206Z,642
2018-07-23T07:39:11.119Z,642
2018-07-23T07:40:11.184Z,645
2018-07-23T07:41:11.068Z,651
2018-07-23T07:42:11.177Z,658
2018-07-23T07:43:11.072Z,668
2018-07-23T07:44:11.155Z,668
2018-07-23T07:45:11.178Z,659
2018-07-23T07:46:11.192Z,658
2018-07-23T07:47:11.071Z,669
2018-07-23T07:48:11.059Z,678
2018-07-23T07:49:11.144Z,687
2018-07-23T07:50:11.173Z,688
2018-07-23T07:51:11.072Z,696
2018-07-23T07:52:11.105Z,697
2018-07-23T07:53:11.154Z,696
2018-07-23T07:54:11.120Z,700
2018-07-23T07:55:11.077Z,705
2018-07-23T07:56:11.175Z,709
2018-07-23T07:57:11.090Z,708
2018-07-23T07:58:11.060Z,713
2018-07-23T07:59:11.120Z,718
2018-07-23T08:00:11.140Z,722
2018-07-23T08:01:11.166Z,719
2018-07-23T08:02:11.133Z,722
2018-07-23T08:03:11.165Z,721
2018-07-23T08:04:11.121Z,723
2018-07-23T08:05:11.105Z,727
2018-07-23T08:06:11.128Z,732
2018-07-23T08:07:11.206Z,735
2018-07-23T08:08:11.147Z,738
2018-07-23T08:09:11.148Z,746
2018-07-23T08:10:11.204Z,747
2018-07-23T08:11:11.201Z,752
2018-07-23T08:12:11.167Z,755
2018-07-23T08:13:11.182Z,755
2018-07-23T08:14:11.143Z,760
2018-07-23T08:15:11.206Z,766
2018-07-23T08:16:11.194Z,766
2018-07-23T08:17:11.194Z,762
2018-07-23T08:18:11.095Z,762
2018-07-23T08:19:11.187Z,765
2018-07-23T08:20:11.102Z,769
2018-07-23T08:21:11.100Z,770
2018-07-23T08:22:11.175Z,773
2018-07-23T08:23:11.087Z,773
2018-07-23T08:24:11.096Z,774
2018-07-23T08:25:11.198Z,775
2018-07-23T08:26:11.138Z,779
2018-07-23T08:27:11.059Z,779
2018-07-23T08:28:11.136Z,782
2018-07-23T08:29:11.135Z,784
2018-07-23T08:30:11.121Z,784
2018-07-23T08:31:11.201Z,786
2018-07-23T08:32:11.144Z,794
2018-07-23T08:33:11.044Z,800
2018-07-23T08:34:11.131Z,798
2018-07-23T08:35:11.049Z,800
2018-07-23T08:36:11.137Z,805
2018-07-23T08:37:11.133Z,801
2018-07-23T08:38:11.146Z,811
2018-07-23T08:39:11.120Z,818
2018-07-23T08:40:11.211Z,818
2018-07-23T08:41:11.121Z,818
2018-07-23T08:42:11.120Z,817
2018-07-23T08:43:11.147Z,819
2018-07-23T08:44:11.128Z,825
2018-07-23T08:45:11.126Z,833
2018-07-23T08:46:11.128Z,837
2018-07-23T08:47:11.199Z,829
2018-07-23T08:48:11.125Z,834
2018-07-23T08:49:11.201Z,827
2018-07-23T08:50:11.128Z,834
2018-07-23T08:51:11.227Z,836
2018-07-23T08:52:11.131Z,835
2018-07-23T08:53:11.130Z,835
2018-07-23T08:54:11.242Z,844
2018-07-23T08:55:11.167Z,853
2018-07-23T08:56:11.293Z,855
2018-07-23T08:57:11.203Z,850
2018-07-23T08:58:11.199Z,855
2018-07-23T08:59:11.197Z,867
2018-07-23T09:00:11.110Z,865
2018-07-23T09:01:11.107Z,853
2018-07-23T09:02:11.249Z,859
2018-07-23T09:03:11.078Z,861
2018-07-23T09:04:11.202Z,874
2018-07-23T09:05:11.145Z,879
2018-07-23T09:06:11.136Z,884
2018-07-23T09:07:11.079Z,880
2018-07-23T09:08:11.148Z,891
2018-07-23T09:09:11.172Z,873
2018-07-23T09:10:11.242Z,894
2018-07-23T09:11:11.209Z,894
2018-07-23T09:12:11.372Z,889
2018-07-23T09:13:11.240Z,887
2018-07-23T09:14:11.172Z,884
2018-07-23T09:15:11.214Z,899
2018-07-23T09:16:11.190Z,904
2018-07-23T09:17:11.151Z,907
2018-07-23T09:18:11.139Z,909
2018-07-23T09:19:11.117Z,906
2018-07-23T09:20:11.219Z,917
2018-07-23T09:21:11.188Z,922
2018-07-23T09:22:11.156Z,932
2018-07-23T09:23:11.211Z,934
2018-07-23T09:24:11.198Z,941
2018-07-23T09:25:11.123Z,951
2018-07-23T09:26:11.249Z,964
2018-07-23T09:27:11.127Z,964
2018-07-23T09:28:11.159Z,954
2018-07-23T09:29:11.224Z,950
2018-07-23T09:30:11.159Z,951
2018-07-23T09:31:11.287Z,960
2018-07-23T09:32:11.157Z,977
2018-07-23T09:33:11.223Z,982
2018-07-23T09:34:11.160Z,992
2018-07-23T09:35:11.225Z,985
2018-07-23T09:36:11.225Z,992
2018-07-23T09:37:11.207Z,993
2018-07-23T09:38:11.199Z,984
2018-07-23T09:39:11.190Z,990
2018-07-23T09:40:11.251Z,1027
2018-07-23T09:41:11.137Z,1020
2018-07-23T09:42:11.227Z,1020
2018-07-23T09:43:11.305Z,1028
2018-07-23T09:44:11.138Z,1039
2018-07-23T09:45:11.155Z,1006
2018-07-23T09:46:11.274Z,900
2018-07-23T09:47:11.237Z,318
2018-07-23T09:48:11.233Z,313
2018-07-23T09:49:11.235Z,277
2018-07-23T09:50:11.184Z,274
2018-07-23T09:51:11.240Z,294
2018-07-23T09:52:11.173Z,888
2018-07-23T09:53:11.133Z,966
2018-07-23T09:54:11.177Z,272
2018-07-23T09:55:11.241Z,254
2018-07-23T09:56:11.175Z,250
2018-07-23T09:57:11.240Z,283
2018-07-23T09:58:11.110Z,417
2018-07-23T09:59:11.234Z,1064
2018-07-23T10:00:11.232Z,1047
2018-07-23T10:01:11.169Z,1085
2018-07-23T10:02:11.233Z,1080
2018-07-23T10:03:11.262Z,1089
2018-07-23T10:04:11.249Z,1089
2018-07-23T10:05:11.230Z,890
2018-07-23T10:06:11.238Z,1013
2018-07-23T10:07:11.232Z,1097
2018-07-23T10:08:11.182Z,1096
2018-07-23T10:09:11.180Z,1099
2018-07-23T10:10:11.176Z,688
2018-07-23T10:11:11.139Z,1095
2018-07-23T10:12:11.211Z,1114
2018-07-23T10:13:11.184Z,1104
2018-07-23T10:14:11.144Z,1112
2018-07-23T10:16:11.207Z,1096
2018-07-23T10:17:11.129Z,1094
2018-07-23T10:18:11.188Z,1093
2018-07-23T10:19:11.257Z,1095
2018-07-23T10:20:11.193Z,1066
2018-07-23T10:21:11.267Z,1054
2018-07-23T10:22:11.277Z,1038
2018-07-23T10:23:11.192Z,1037
2018-07-23T10:24:11.280Z,958
2018-07-23T10:25:11.261Z,1009
2018-07-23T10:26:11.259Z,521
2018-07-23T10:27:11.195Z,811
2018-07-23T10:28:11.216Z,1024
2018-07-23T10:29:11.264Z,950
2018-07-23T10:30:11.229Z,957
2018-07-23T10:31:11.282Z,989
2018-07-23T10:32:11.208Z,1017
2018-07-23T10:33:11.305Z,1023
2018-07-23T10:34:11.229Z,1018
2018-07-23T10:35:11.332Z,1037
2018-07-23T10:36:11.175Z,1053
2018-07-23T10:37:11.235Z,1049
2018-07-23T10:38:11.197Z,1039
2018-07-23T10:39:11.199Z,1034
2018-07-23T10:40:11.308Z,1034
2018-07-23T10:41:11.306Z,1022
2018-07-23T10:42:11.222Z,1019
2018-07-23T10:43:11.199Z,1024
2018-07-23T10:44:11.202Z,1032
2018-07-23T10:45:11.163Z,1033
2018-07-23T10:46:11.166Z,1005
2018-07-23T10:47:11.144Z,1014
2018-07-23T10:48:11.242Z,1007
2018-07-23T10:49:11.198Z,1010
2018-07-23T10:50:11.302Z,1000
2018-07-23T10:51:11.242Z,996
2018-07-23T10:52:11.300Z,1017
2018-07-23T10:53:11.188Z,1018
2018-07-23T10:54:11.317Z,1014
2018-07-23T10:55:11.241Z,1015
2018-07-23T10:56:11.303Z,1026
2018-07-23T10:57:11.352Z,1014
2018-07-23T10:58:11.286Z,1003
2018-07-23T10:59:11.281Z,460
2018-07-23T11:00:11.216Z,926
2018-07-23T11:01:11.286Z,938
2018-07-23T11:02:11.220Z,1042
2018-07-23T11:03:11.285Z,1034
2018-07-23T11:04:11.223Z,1027
2018-07-23T11:05:11.169Z,979
2018-07-23T11:06:11.228Z,994
2018-07-23T11:07:11.235Z,999
2018-07-23T11:08:11.195Z,1014
2018-07-23T11:09:11.264Z,1010
2018-07-23T11:10:11.318Z,1018
2018-07-23T11:11:11.211Z,1018
2018-07-23T11:12:11.412Z,996
2018-07-23T11:13:11.294Z,1021
2018-07-23T11:14:11.295Z,986
2018-07-23T11:15:11.262Z,1006
2018-07-23T11:16:11.247Z,1015
2018-07-23T11:17:11.262Z,1007
2018-07-23T11:18:11.191Z,992
2018-07-23T11:19:11.172Z,985
2018-07-23T11:20:11.250Z,992
2018-07-23T11:21:11.248Z,959
2018-07-23T11:22:11.199Z,953
2018-07-23T11:23:11.285Z,985
2018-07-23T11:24:11.209Z,998
2018-07-23T11:25:40.215Z,992
2018-07-23T11:26:11.311Z,987
2018-07-23T11:27:11.254Z,991
2018-07-23T11:28:11.274Z,1000
2018-07-23T11:29:11.240Z,1001
2018-07-23T11:30:11.242Z,1006
2018-07-23T11:31:11.241Z,1007
2018-07-23T11:32:11.277Z,1006
2018-07-23T11:33:11.307Z,1012
2018-07-23T11:34:11.199Z,996
2018-07-23T11:35:11.279Z,986
2018-07-23T11:36:11.279Z,1005
2018-07-23T11:37:11.306Z,1006
2018-07-23T11:38:11.240Z,999
2018-07-23T11:39:11.316Z,1003
2018-07-23T11:40:11.244Z,1004
2018-07-23T11:41:11.240Z,999
2018-07-23T11:42:11.243Z,1006
2018-07-23T11:43:11.250Z,1009
2018-07-23T11:44:11.213Z,1013
2018-07-23T11:45:11.299Z,1011
2018-07-23T11:46:24.425Z,1000
2018-07-23T11:47:11.298Z,999
2018-07-23T11:48:11.307Z,1007
2018-07-23T11:49:11.224Z,1004
2018-07-23T11:50:11.190Z,1000
2018-07-23T11:51:11.312Z,997
2018-07-23T11:53:11.255Z,1000
2018-07-23T11:54:11.225Z,997
2018-07-23T11:55:11.304Z,1008
2018-07-23T11:56:11.229Z,1012
2018-07-23T11:57:11.227Z,1010
2018-07-23T11:58:11.260Z,1000
2018-07-23T11:59:11.257Z,1000
2018-07-23T12:00:11.259Z,1001
2018-07-23T12:01:11.325Z,1008
2018-07-23T12:02:11.328Z,1008
2018-07-23T12:03:11.331Z,1008
2018-07-23T12:04:11.402Z,1012
2018-07-23T12:05:11.263Z,1006
2018-07-23T12:06:11.331Z,1006
2018-07-23T12:07:11.265Z,1014
2018-07-23T12:08:11.353Z,1014
2018-07-23T12:09:11.335Z,1013
2018-07-23T12:10:11.303Z,1003
2018-07-23T12:11:11.358Z,1001
2018-07-23T12:12:11.381Z,1002
2018-07-23T12:13:11.353Z,1000
2018-07-23T12:14:11.376Z,1000
2018-07-23T12:15:11.277Z,1003
2018-07-23T12:16:11.260Z,997
2018-07-23T12:17:11.315Z,994
2018-07-23T12:18:11.263Z,985
2018-07-23T12:19:11.338Z,990
2018-07-23T12:20:11.293Z,988
2018-07-23T12:21:11.370Z,989
2018-07-23T12:22:11.383Z,990
2018-07-23T12:23:11.342Z,981
2018-07-23T12:24:11.315Z,978
2018-07-23T12:25:11.340Z,983
2018-07-23T12:26:11.397Z,979
2018-07-23T12:27:11.306Z,979
2018-07-23T12:28:11.362Z,973
2018-07-23T12:29:11.306Z,969
2018-07-23T12:30:11.373Z,978
2018-07-23T12:31:11.345Z,979
2018-07-23T12:32:11.269Z,982
2018-07-23T12:33:11.306Z,977
2018-07-23T12:34:11.378Z,979
2018-07-23T12:35:11.366Z,983
2018-07-23T12:36:11.314Z,983
2018-07-23T12:37:11.390Z,984
2018-07-23T12:38:11.288Z,985
2018-07-23T12:39:11.354Z,992
2018-07-23T12:40:11.349Z,995
2018-07-23T12:41:11.294Z,984
2018-07-23T12:42:11.294Z,980
2018-07-23T12:43:11.323Z,978
2018-07-23T12:44:11.289Z,981
2018-07-23T12:45:11.356Z,982
2018-07-23T12:46:11.355Z,980
2018-07-23T12:47:11.424Z,972
2018-07-23T12:48:11.363Z,970
2018-07-23T12:49:11.312Z,979
2018-07-23T12:50:11.398Z,979
2018-07-23T12:51:11.377Z,977
2018-07-23T12:52:11.336Z,975
2018-07-23T12:53:11.393Z,971
2018-07-23T12:54:11.269Z,958
2018-07-23T12:55:11.317Z,955
2018-07-23T12:56:11.317Z,963
2018-07-23T12:57:11.288Z,965
2018-07-23T12:58:11.329Z,962
2018-07-23T12:59:11.333Z,961
2018-07-23T13:00:11.366Z,953
2018-07-23T13:01:11.392Z,942
2018-07-23T13:02:11.393Z,955
2018-07-23T13:03:11.346Z,949
2018-07-23T13:04:11.388Z,948
2018-07-23T13:05:11.322Z,947
2018-07-23T13:06:11.287Z,934
2018-07-23T13:07:11.402Z,933
2018-07-23T13:08:11.323Z,945
2018-07-23T13:09:11.372Z,945
2018-07-23T13:10:11.311Z,944
2018-07-23T13:11:11.342Z,951
2018-07-23T13:12:11.347Z,937
2018-07-23T13:13:11.337Z,947
2018-07-23T13:14:11.387Z,951
2018-07-23T13:15:11.280Z,946
2018-07-23T13:16:11.281Z,943
2018-07-23T13:17:11.377Z,942
2018-07-23T13:18:11.396Z,938
2018-07-23T13:19:11.408Z,924
2018-07-23T13:20:11.347Z,930
2018-07-23T13:21:11.401Z,926
2018-07-23T13:22:11.280Z,920
2018-07-23T13:23:11.304Z,923
2018-07-23T13:24:11.341Z,914
2018-07-23T13:25:11.343Z,909
2018-07-23T13:26:11.291Z,914
2018-07-23T13:27:11.292Z,915
2018-07-23T13:28:11.406Z,912
2018-07-23T13:29:11.345Z,914
2018-07-23T13:30:11.413Z,914
2018-07-23T13:31:11.356Z,902
2018-07-23T13:32:11.385Z,899
2018-07-23T13:33:11.283Z,902
2018-07-23T13:34:11.310Z,902
2018-07-23T13:35:11.390Z,905
2018-07-23T13:36:11.334Z,910
2018-07-23T13:37:11.315Z,898
2018-07-23T13:38:11.516Z,904
2018-07-23T13:39:11.309Z,899
2018-07-23T13:40:11.348Z,897
2018-07-23T13:41:11.345Z,902
2018-07-23T13:42:11.396Z,900
2018-07-23T13:43:11.416Z,899
2018-07-23T13:44:11.350Z,897
2018-07-23T13:45:11.359Z,896
2018-07-23T13:46:11.395Z,898
2018-07-23T13:47:11.294Z,900
2018-07-23T13:48:11.359Z,895
2018-07-23T13:49:11.433Z,889
2018-07-23T13:50:11.357Z,884
2018-07-23T13:51:11.304Z,879
2018-07-23T13:52:11.372Z,878
2018-07-23T13:53:11.308Z,874
2018-07-23T13:54:11.421Z,871
2018-07-23T13:55:11.435Z,869
2018-07-23T13:56:11.385Z,867
2018-07-23T13:57:11.401Z,865
2018-07-23T13:58:11.326Z,862
2018-07-23T13:59:11.302Z,858
2018-07-23T14:00:11.327Z,855
2018-07-23T14:01:11.396Z,852
2018-07-23T14:02:11.366Z,850
2018-07-23T14:03:11.378Z,847
2018-07-23T14:04:11.431Z,844
2018-07-23T14:05:11.444Z,843
2018-07-23T14:06:11.484Z,840